Time;durP1;ratioP1;P1;durP2;ratioP2;P2;SDS_P1;SDS_P2;PMS_P1;PMS_P2;Temp;Humidity;BMP_temperature;BMP_pressure;BME280_temperature;BME280_humidity;BME280_pressure;Samples;Min_cycle;Max_cycle;Signal;HPM_P1;HPM_P2
2022/05/27 00:01:28;;;;;;;6.40;5.10;;;14.20;99.90;;;;;;5030995;28;20989;-67
2022/05/27 00:03:59;;;;;;;10.43;4.80;;;14.20;99.90;;;;;;5031056;28;20925;-68
2022/05/27 00:06:25;;;;;;;7.93;6.90;;;14.20;99.90;;;;;;5031038;28;20506;-68
2022/05/27 00:08:51;;;;;;;8.57;5.90;;;14.20;99.90;;;;;;5031040;28;20542;-68
2022/05/27 00:11:16;;;;;;;9.07;6.47;;;14.20;99.90;;;;;;5030969;28;20493;-67
2022/05/27 00:13:42;;;;;;;9.10;7.60;;;14.10;99.90;;;;;;5029599;28;20563;-67
2022/05/27 00:16:08;;;;;;;7.23;6.03;;;14.10;99.90;;;;;;5030747;28;20411;-67
2022/05/27 00:18:34;;;;;;;8.30;6.83;;;14.10;99.90;;;;;;5030702;28;20191;-67
2022/05/27 00:21:00;;;;;;;10.40;7.10;;;14.10;99.90;;;;;;5030876;28;20963;-67
2022/05/27 00:23:26;;;;;;;7.90;7.10;;;14.10;99.90;;;;;;5029524;28;20625;-67
2022/05/27 00:25:51;;;;;;;7.03;6.33;;;14.10;99.90;;;;;;5030660;28;20172;-67
2022/05/27 00:28:17;;;;;;;6.90;5.83;;;14.10;99.90;;;;;;5030937;28;20533;-67
2022/05/27 00:30:42;;;;;;;8.30;7.00;;;14.10;99.90;;;;;;5031243;28;20203;-67
2022/05/27 00:33:08;;;;;;;8.73;7.90;;;14.00;99.90;;;;;;5030281;28;20717;-67
2022/05/27 00:35:34;;;;;;;6.37;5.63;;;14.10;99.90;;;;;;5030247;28;20167;-67
2022/05/27 00:37:59;;;;;;;7.17;5.57;;;14.10;99.90;;;;;;5030439;28;20238;-67
2022/05/27 00:40:27;;;;;;;6.97;5.43;;;14.10;99.90;;;;;;5030797;28;20231;-67
2022/05/27 00:42:52;;;;;;;7.57;6.17;;;14.10;99.90;;;;;;5031101;28;20403;-67
2022/05/27 00:45:23;;;;;;;5.40;4.90;;;14.10;99.90;;;;;;5030994;28;20853;-67
2022/05/27 00:47:53;;;;;;;5.27;4.87;;;14.10;99.90;;;;;;5030591;28;20191;-67
2022/05/27 00:50:24;;;;;;;7.10;5.20;;;14.10;99.90;;;;;;5030556;28;20941;-67
2022/05/27 00:52:50;;;;;;;4.90;4.37;;;14.10;99.90;;;;;;5030551;28;20399;-67
2022/05/27 00:55:20;;;;;;;7.40;5.67;;;14.10;99.90;;;;;;5030315;28;20556;-67
2022/05/27 00:57:50;;;;;;;5.20;4.70;;;14.10;99.90;;;;;;5030332;28;20233;-67
2022/05/27 01:00:22;;;;;;;8.27;3.73;;;14.10;99.90;;;;;;5030333;28;20893;-68
2022/05/27 01:02:48;;;;;;;4.20;3.80;;;14.10;99.90;;;;;;5030382;28;20408;-68
2022/05/27 01:05:17;;;;;;;4.80;4.07;;;14.10;99.90;;;;;;5030087;28;20426;-67
2022/05/27 01:07:43;;;;;;;4.93;4.47;;;14.10;99.90;;;;;;5030367;28;20425;-68
2022/05/27 01:10:11;;;;;;;4.70;4.27;;;14.10;99.90;;;;;;5032149;28;20414;-67
2022/05/27 01:12:53;;;;;;;5.23;4.73;;;14.10;99.90;;;;;;5034077;28;20290;-67
2022/05/27 01:15:59;;;;;;;4.50;3.97;;;14.20;99.90;;;;;;5033991;28;20770;-68
2022/05/27 01:21:52;;;;;;;5.77;4.63;;;14.10;99.90;;;;;;5034335;28;20998;-67
2022/05/27 01:24:47;;;;;;;4.87;4.47;;;14.20;99.90;;;;;;5034145;28;20460;-67
2022/05/27 01:27:51;;;;;;;6.80;4.83;;;14.20;99.90;;;;;;5033805;28;20394;-67
2022/05/27 01:30:36;;;;;;;6.57;4.67;;;14.20;99.90;;;;;;5033896;28;20406;-68
2022/05/27 01:33:18;;;;;;;6.30;5.67;;;14.20;99.90;;;;;;5033923;28;20406;-67
2022/05/27 01:35:55;;;;;;;8.50;5.67;;;14.20;99.90;;;;;;5033415;28;20398;-67
2022/05/27 01:38:34;;;;;;;5.63;4.50;;;14.20;99.90;;;;;;5034065;28;20446;-68
2022/05/27 01:41:18;;;;;;;5.60;4.80;;;14.20;99.90;;;;;;5033753;28;20499;-67
2022/05/27 01:44:01;;;;;;;9.30;5.13;;;14.20;99.90;;;;;;5033945;28;20735;-68
2022/05/27 01:46:35;;;;;;;9.03;7.03;;;14.20;99.90;;;;;;5033164;28;20463;-67
2022/05/27 01:49:36;;;;;;;7.93;5.57;;;14.20;99.90;;;;;;5033770;28;20915;-67
2022/05/27 01:52:23;;;;;;;7.07;5.80;;;14.20;99.90;;;;;;5033506;28;20460;-67
2022/05/27 01:54:58;;;;;;;10.20;5.53;;;14.20;99.90;;;;;;5033142;28;20557;-67
2022/05/27 01:57:36;;;;;;;6.03;5.43;;;14.10;99.90;;;;;;5030930;28;20421;-67
2022/05/27 02:00:08;;;;;;;6.90;5.60;;;14.20;99.90;;;;;;5033286;28;20398;-68
2022/05/27 02:02:37;;;;;;;8.27;7.00;;;14.20;99.90;;;;;;5033573;28;20407;-68
2022/05/27 02:05:10;;;;;;;8.27;6.60;;;14.20;99.90;;;;;;5033446;28;20410;-67
2022/05/27 02:07:51;;;;;;;8.40;6.60;;;14.20;99.90;;;;;;5033697;28;20580;-68
2022/05/27 02:10:24;;;;;;;6.73;6.03;;;14.20;99.90;;;;;;5033046;28;20413;-68
2022/05/27 02:12:56;;;;;;;7.70;6.30;;;14.20;99.90;;;;;;5033304;28;20437;-68
2022/05/27 02:15:28;;;;;;;10.13;6.07;;;14.30;99.90;;;;;;5032978;28;20524;-68
2022/05/27 02:18:21;;;;;;;10.23;6.67;;;14.30;99.90;;;;;;5033542;28;21028;-68
2022/05/27 02:20:59;;;;;;;8.10;6.70;;;14.20;99.90;;;;;;5032997;28;20442;-68
2022/05/27 02:23:31;;;;;;;7.63;6.40;;;14.20;99.90;;;;;;5033385;28;20409;-68
2022/05/27 02:25:59;;;;;;;8.20;7.13;;;14.20;99.90;;;;;;5033103;28;20552;-68
2022/05/27 02:28:29;;;;;;;7.73;6.90;;;14.20;99.90;;;;;;5033497;28;20445;-68
2022/05/27 02:31:02;;;;;;;9.30;6.97;;;14.30;99.90;;;;;;5032809;28;20433;-68
2022/05/27 02:36:31;;;;;;;8.40;6.20;;;14.20;99.90;;;;;;5032521;28;21057;-68
2022/05/27 02:38:56;;;;;;;7.60;6.53;;;14.20;99.90;;;;;;5032611;28;20818;-68
2022/05/27 02:41:37;;;;;;;7.20;6.50;;;14.20;99.90;;;;;;5032247;28;20446;-69
2022/05/27 02:44:17;;;;;;;8.17;7.30;;;14.20;99.90;;;;;;5032661;28;20163;-68
2022/05/27 02:46:57;;;;;;;6.67;6.07;;;14.20;99.90;;;;;;5032563;28;20982;-68
2022/05/27 02:49:40;;;;;;;7.60;6.90;;;14.20;99.90;;;;;;5032901;28;20455;-68
2022/05/27 02:52:34;;;;;;;5.70;5.20;;;14.20;99.90;;;;;;5032588;28;20903;-68
2022/05/27 02:55:23;;;;;;;10.60;6.57;;;14.20;99.90;;;;;;5032278;28;20406;-68
2022/05/27 02:57:52;;;;;;;6.97;6.27;;;14.30;99.90;;;;;;5032392;28;20745;-68
2022/05/27 03:00:25;;;;;;;7.37;6.10;;;14.20;99.90;;;;;;5032128;28;20781;-68
2022/05/27 03:02:51;;;;;;;7.27;6.47;;;14.20;99.90;;;;;;5032549;28;20473;-68
2022/05/27 03:05:21;;;;;;;7.47;6.37;;;14.20;99.90;;;;;;5032102;28;20506;-68
2022/05/27 03:07:56;;;;;;;7.17;5.77;;;14.20;99.90;;;;;;5032204;28;20430;-68
2022/05/27 03:10:27;;;;;;;8.67;5.77;;;14.20;99.90;;;;;;5032225;28;20402;-68
2022/05/27 03:13:16;;;;;;;6.90;6.20;;;14.20;99.90;;;;;;5032095;28;20445;-68
2022/05/27 03:16:04;;;;;;;7.03;6.10;;;14.20;99.90;;;;;;5031890;28;20403;-68
2022/05/27 03:19:01;;;;;;;5.70;5.10;;;14.20;99.90;;;;;;5032412;28;20433;-68
2022/05/27 03:21:48;;;;;;;5.80;5.07;;;14.20;99.90;;;;;;5032294;28;20465;-67
2022/05/27 03:24:21;;;;;;;6.03;4.53;;;14.30;99.90;;;;;;5032347;28;20402;-67
2022/05/27 03:27:00;;;;;;;6.07;5.43;;;14.30;99.90;;;;;;5031871;28;20428;-67
2022/05/27 03:29:33;;;;;;;6.83;4.67;;;14.30;99.90;;;;;;5031952;28;20940;-68
2022/05/27 03:32:09;;;;;;;6.93;5.37;;;14.30;99.90;;;;;;5031933;28;20406;-68
2022/05/27 03:34:43;;;;;;;6.33;5.37;;;14.20;99.90;;;;;;5031681;28;20401;-68
2022/05/27 03:37:16;;;;;;;4.90;4.23;;;14.20;99.90;;;;;;5031619;28;20516;-67
2022/05/27 03:39:54;;;;;;;7.23;5.00;;;14.30;99.90;;;;;;5031513;28;20421;-67
2022/05/27 03:42:24;;;;;;;6.27;5.37;;;14.30;99.90;;;;;;5031557;28;20452;-68
2022/05/27 03:45:05;;;;;;;5.80;4.30;;;14.20;99.90;;;;;;5031464;28;20405;-67
2022/05/27 03:47:35;;;;;;;5.33;4.47;;;14.20;99.90;;;;;;5031321;28;20421;-67
2022/05/27 03:50:02;;;;;;;4.90;4.40;;;14.20;99.90;;;;;;5031373;28;20406;-67
2022/05/27 03:52:34;;;;;;;4.90;4.50;;;14.20;99.90;;;;;;5029545;28;20421;-67
2022/05/27 03:54:59;;;;;;;4.73;4.30;;;14.20;99.90;;;;;;5030901;28;20422;-68
2022/05/27 03:57:25;;;;;;;6.93;4.40;;;14.20;99.90;;;;;;5031143;28;20706;-67
2022/05/27 03:59:51;;;;;;;6.37;5.10;;;14.20;99.90;;;;;;5029814;28;20646;-67
2022/05/27 04:02:16;;;;;;;5.20;4.70;;;14.20;99.90;;;;;;5030964;28;20207;-67
2022/05/27 04:04:41;;;;;;;6.20;5.60;;;14.20;99.90;;;;;;5030732;28;20171;-67
2022/05/27 04:07:07;;;;;;;5.83;5.33;;;14.20;99.90;;;;;;5031003;28;20302;-67
2022/05/27 04:09:33;;;;;;;5.87;5.30;;;14.20;99.90;;;;;;5031235;28;20171;-68
2022/05/27 04:11:59;;;;;;;4.87;4.10;;;14.30;99.90;;;;;;5031222;28;20183;-67
2022/05/27 04:14:25;;;;;;;9.80;4.93;;;14.20;99.90;;;;;;5031086;28;20402;-68
2022/05/27 04:16:51;;;;;;;5.87;5.00;;;14.30;99.90;;;;;;5030893;28;20179;-68
2022/05/27 04:19:17;;;;;;;5.33;4.63;;;14.30;99.90;;;;;;5030625;28;20438;-68
2022/05/27 04:21:43;;;;;;;5.43;5.03;;;14.30;99.90;;;;;;5030795;28;20731;-68
2022/05/27 04:24:09;;;;;;;9.83;6.60;;;14.30;99.90;;;;;;5030809;28;20410;-67
2022/05/27 04:26:35;;;;;;;6.20;5.33;;;14.30;99.90;;;;;;5031083;28;20464;-67
2022/05/27 04:29:01;;;;;;;5.90;5.40;;;14.20;99.90;;;;;;5030692;28;20235;-67
2022/05/27 04:31:27;;;;;;;6.03;5.43;;;14.20;99.90;;;;;;5030735;28;20878;-67
2022/05/27 04:33:52;;;;;;;8.90;5.03;;;14.20;99.90;;;;;;5030540;28;20508;-67
2022/05/27 04:36:18;;;;;;;6.00;5.27;;;14.30;99.90;;;;;;5030507;28;20270;-67
2022/05/27 04:38:43;;;;;;;5.47;4.87;;;14.30;99.90;;;;;;5030592;28;20222;-67
2022/05/27 04:41:09;;;;;;;5.63;4.80;;;14.30;99.90;;;;;;5030875;28;20195;-67
2022/05/27 04:43:35;;;;;;;6.90;5.20;;;14.30;99.90;;;;;;5030823;28;20574;-68
2022/05/27 04:46:01;;;;;;;5.17;4.70;;;14.30;99.90;;;;;;5029864;28;20163;-67
2022/05/27 04:48:26;;;;;;;8.23;5.50;;;14.30;99.90;;;;;;5030404;28;20241;-68
2022/05/27 04:50:52;;;;;;;6.60;5.37;;;14.40;99.90;;;;;;5030840;28;20978;-67
2022/05/27 04:53:18;;;;;;;6.03;5.13;;;14.40;99.90;;;;;;5030589;28;20693;-67
2022/05/27 04:55:44;;;;;;;6.37;4.83;;;14.40;99.90;;;;;;5030338;28;20211;-67
2022/05/27 04:58:11;;;;;;;5.17;4.77;;;14.40;99.90;;;;;;5030735;28;20198;-68
2022/05/27 05:00:42;;;;;;;5.77;4.80;;;14.40;99.90;;;;;;5030358;28;20453;-66
2022/05/27 05:03:09;;;;;;;4.27;3.90;;;14.40;99.90;;;;;;5030321;28;20422;-67
2022/05/27 05:05:35;;;;;;;6.60;5.17;;;14.40;99.90;;;;;;5030191;28;20437;-67
2022/05/27 05:08:05;;;;;;;5.70;4.87;;;14.40;99.90;;;;;;5030166;28;20472;-68
2022/05/27 05:10:32;;;;;;;6.20;4.50;;;14.40;99.90;;;;;;5030314;28;20452;-67
2022/05/27 05:12:58;;;;;;;7.37;4.20;;;14.50;99.90;;;;;;5030497;28;20414;-68
2022/05/27 05:15:25;;;;;;;5.80;5.20;;;14.50;99.90;;;;;;5030219;28;20421;-67
2022/05/27 05:17:51;;;;;;;10.13;5.33;;;14.50;99.90;;;;;;5030294;28;20469;-68
2022/05/27 05:20:22;;;;;;;5.60;5.10;;;14.50;99.90;;;;;;5030602;28;20398;-67
2022/05/27 05:22:47;;;;;;;5.20;4.70;;;14.50;99.90;;;;;;5030604;28;20394;-69
2022/05/27 05:25:13;;;;;;;6.50;5.10;;;14.50;99.90;;;;;;5030381;28;20391;-68
2022/05/27 05:27:40;;;;;;;5.77;4.93;;;14.40;99.90;;;;;;5030635;28;20575;-68
2022/05/27 05:30:10;;;;;;;5.17;4.70;;;14.40;99.90;;;;;;5030576;28;20207;-68
2022/05/27 05:32:36;;;;;;;7.03;5.83;;;14.40;99.90;;;;;;5030535;28;20403;-68
2022/05/27 05:35:01;;;;;;;5.87;4.60;;;14.30;99.90;;;;;;5030550;28;20398;-69
2022/05/27 05:37:27;;;;;;;10.23;4.80;;;14.30;99.90;;;;;;5030310;28;20444;-68
2022/05/27 05:39:53;;;;;;;4.40;4.00;;;14.20;99.90;;;;;;5030447;28;20517;-68
2022/05/27 05:42:19;;;;;;;6.20;5.60;;;14.20;99.90;;;;;;5030417;28;20209;-68
2022/05/27 05:44:45;;;;;;;6.20;4.90;;;14.20;99.90;;;;;;5030172;28;20254;-68
2022/05/27 05:47:11;;;;;;;3.10;2.80;;;14.10;99.90;;;;;;5030999;28;20168;-68
2022/05/27 05:49:36;;;;;;;4.53;2.63;;;14.10;99.90;;;;;;5030698;28;20410;-68
2022/05/27 05:52:03;;;;;;;3.40;2.73;;;13.80;99.90;;;;;;5030385;28;20533;-68
2022/05/27 05:54:29;;;;;;;3.00;2.60;;;13.90;99.90;;;;;;5030291;28;20251;-68
2022/05/27 05:56:58;;;;;;;2.87;2.50;;;14.00;99.90;;;;;;5031659;28;20445;-68
2022/05/27 05:59:27;;;;;;;2.63;2.43;;;13.90;99.90;;;;;;5033919;28;20190;-68
2022/05/27 06:01:52;;;;;;;4.93;3.10;;;14.10;99.90;;;;;;5033812;28;20461;-68
2022/05/27 06:04:18;;;;;;;2.90;2.60;;;14.00;99.90;;;;;;5033854;28;20819;-67
2022/05/27 06:06:43;;;;;;;3.10;2.40;;;14.20;99.90;;;;;;5033670;28;20168;-68
2022/05/27 06:09:09;;;;;;;4.27;2.10;;;14.10;99.90;;;;;;5033885;28;20234;-68
2022/05/27 06:11:38;;;;;;;2.00;1.80;;;14.10;99.90;;;;;;5033516;28;20230;-68
2022/05/27 06:14:05;;;;;;;1.97;1.77;;;14.10;99.90;;;;;;5033650;28;20178;-68
2022/05/27 06:16:30;;;;;;;2.33;2.10;;;14.10;99.90;;;;;;5033692;28;20391;-68
2022/05/27 06:18:56;;;;;;;4.80;2.70;;;14.10;99.90;;;;;;5033694;28;20433;-69
2022/05/27 06:21:21;;;;;;;2.93;2.67;;;14.10;99.90;;;;;;5033380;28;20207;-67
2022/05/27 06:23:47;;;;;;;1.90;1.70;;;14.40;99.90;;;;;;5033523;28;20191;-69
2022/05/27 06:26:13;;;;;;;5.13;2.27;;;14.60;99.90;;;;;;5033100;28;20187;-68
2022/05/27 06:34:25;;;;;;;3.80;2.23;;;15.30;99.90;;;;;;5033276;28;20410;-68
2022/05/27 06:37:13;;;;;;;3.90;1.60;;;15.40;99.90;;;;;;5033094;28;20415;-67
2022/05/27 06:39:38;;;;;;;1.70;1.60;;;15.30;99.90;;;;;;5033270;28;20410;-68
2022/05/27 06:42:09;;;;;;;2.17;1.97;;;15.10;99.90;;;;;;5033210;28;20545;-67
2022/05/27 06:44:36;;;;;;;2.90;2.23;;;15.20;99.90;;;;;;5032778;28;20403;-67
2022/05/27 06:47:02;;;;;;;2.20;2.10;;;15.70;99.90;;;;;;5032771;28;20413;-68
2022/05/27 06:49:28;;;;;;;1.97;1.83;;;16.10;99.90;;;;;;5032725;28;20410;-68
2022/05/27 06:51:53;;;;;;;2.10;1.70;;;16.10;99.90;;;;;;5033004;28;20408;-68
2022/05/27 06:54:19;;;;;;;1.80;1.70;;;16.00;99.90;;;;;;5032981;28;20574;-67
2022/05/27 06:56:47;;;;;;;3.37;1.73;;;15.90;99.90;;;;;;5032796;28;20173;-68
2022/05/27 06:59:14;;;;;;;2.40;1.77;;;16.40;99.90;;;;;;5032948;28;20441;-67
2022/05/27 07:01:40;;;;;;;2.67;1.50;;;16.80;99.90;;;;;;5031315;28;20451;-67
2022/05/27 07:04:05;;;;;;;2.20;1.83;;;16.30;99.90;;;;;;5032990;28;20558;-67
2022/05/27 07:06:34;;;;;;;2.90;2.00;;;16.60;99.90;;;;;;5032532;28;20174;-68
2022/05/27 07:09:03;;;;;;;2.20;1.87;;;16.80;99.90;;;;;;5032474;28;20552;-68
2022/05/27 07:11:29;;;;;;;3.00;1.77;;;16.70;99.90;;;;;;5032346;28;20403;-67
2022/05/27 07:13:54;;;;;;;3.03;1.53;;;17.30;99.90;;;;;;5032590;28;20434;-67
2022/05/27 07:16:20;;;;;;;3.33;1.50;;;17.30;99.90;;;;;;5032338;28;20484;-67
2022/05/27 07:18:45;;;;;;;2.20;1.40;;;17.30;99.90;;;;;;5032207;28;20194;-67
2022/05/27 07:21:10;;;;;;;2.43;1.60;;;17.50;99.90;;;;;;5032501;28;20237;-67
2022/05/27 07:23:36;;;;;;;3.23;1.40;;;17.70;99.90;;;;;;5032335;28;20173;-67
2022/05/27 07:26:02;;;;;;;2.80;1.60;;;19.10;99.90;;;;;;5032101;28;20176;-67
2022/05/27 07:28:28;;;;;;;1.50;1.40;;;18.90;99.90;;;;;;5032424;28;20559;-67
2022/05/27 07:30:55;;;;;;;1.57;1.10;;;18.20;99.90;;;;;;5032182;28;20231;-67
2022/05/27 07:33:20;;;;;;;2.70;1.00;;;17.70;99.90;;;;;;5031948;28;20183;-67
2022/05/27 07:35:46;;;;;;;2.90;1.37;;;17.90;99.90;;;;;;5032096;28;20415;-70
2022/05/27 07:38:12;;;;;;;1.67;1.10;;;18.40;99.90;;;;;;5032763;28;20238;-67
2022/05/27 07:40:38;;;;;;;3.80;1.53;;;18.60;99.90;;;;;;5039299;23;20576;-72
2022/05/27 07:43:06;;;;;;;3.97;1.60;;;18.90;99.90;;;;;;5013115;28;20578;-72
2022/05/27 07:45:39;;;;;;;4.10;1.87;;;18.20;99.90;;;;;;5012696;28;20460;-72
2022/05/27 07:48:05;;;;;;;2.17;1.43;;;18.00;99.90;;;;;;5012776;28;20399;-72
2022/05/27 07:50:31;;;;;;;2.50;1.70;;;18.60;99.90;;;;;;5012785;28;20433;-72
2022/05/27 07:52:56;;;;;;;2.63;1.53;;;18.00;99.90;;;;;;5011886;28;20807;-72
2022/05/27 07:55:22;;;;;;;1.87;1.27;;;18.30;99.90;;;;;;5012582;28;20406;-72
2022/05/27 07:57:48;;;;;;;1.20;1.10;;;17.90;99.90;;;;;;5012674;28;20175;-72
2022/05/27 08:00:23;;;;;;;1.50;1.10;;;18.40;99.90;;;;;;5012548;28;20189;-72
2022/05/27 08:02:48;;;;;;;1.10;0.90;;;17.90;99.90;;;;;;5012516;28;20420;-72
2022/05/27 08:05:17;;;;;;;1.83;1.20;;;17.40;99.90;;;;;;5012448;28;20419;-72
2022/05/27 08:07:43;;;;;;;1.83;1.20;;;17.70;99.90;;;;;;5012625;28;20613;-72
2022/05/27 08:10:10;;;;;;;4.93;1.40;;;17.90;99.90;;;;;;5012434;28;20441;-72
2022/05/27 08:12:36;;;;;;;2.00;0.90;;;17.50;99.90;;;;;;5012370;28;20263;-72
2022/05/27 08:15:02;;;;;;;1.77;0.90;;;18.50;99.90;;;;;;5012271;28;20896;-72
2022/05/27 08:17:28;;;;;;;2.63;1.20;;;18.70;99.90;;;;;;5012331;28;20418;-72
2022/05/27 08:19:53;;;;;;;1.17;0.70;;;18.60;99.90;;;;;;5011714;28;20434;-72
2022/05/27 08:22:19;;;;;;;4.53;1.47;;;18.90;99.90;;;;;;5012221;28;20199;-72
2022/05/27 08:24:45;;;;;;;4.57;1.50;;;18.90;99.90;;;;;;5012028;28;20167;-72
2022/05/27 08:27:11;;;;;;;2.87;1.00;;;19.00;99.90;;;;;;5012311;28;20424;-72
2022/05/27 08:29:36;;;;;;;2.47;1.67;;;19.30;99.90;;;;;;5012036;28;20672;-72
2022/05/27 08:32:03;;;;;;;1.00;0.70;;;19.40;99.90;;;;;;5012370;28;20630;-71
2022/05/27 08:40:01;;;;;;;1.10;1.00;;;19.70;99.20;;;;;;5011758;28;20842;-71
2022/05/27 08:42:44;;;;;;;1.60;1.10;;;19.70;98.00;;;;;;5012184;28;20494;-72
2022/05/27 08:45:26;;;;;;;1.37;0.87;;;19.70;98.60;;;;;;5012131;28;20901;-72
2022/05/27 08:48:04;;;;;;;5.60;1.20;;;20.80;97.30;;;;;;5012126;28;20764;-72
2022/05/27 08:50:56;;;;;;;1.20;1.07;;;20.30;95.50;;;;;;5012248;28;20473;-72
2022/05/27 08:53:49;;;;;;;1.43;1.00;;;21.70;94.80;;;;;;5012108;28;20408;-73
2022/05/27 08:59:35;;;;;;;2.87;1.10;;;19.70;94.50;;;;;;5012169;28;20408;-71
2022/05/27 09:02:27;;;;;;;6.10;1.30;;;19.90;95.00;;;;;;5011943;28;20462;-72
2022/05/27 09:05:18;;;;;;;4.37;1.53;;;20.30;96.60;;;;;;5011981;28;20490;-72
2022/05/27 09:07:55;;;;;;;1.30;1.07;;;21.10;95.00;;;;;;5006205;28;20427;-72
2022/05/27 09:10:30;;;;;;;3.43;1.30;;;21.80;90.10;;;;;;5012055;28;20436;-73
2022/05/27 09:13:05;;;;;;;3.23;1.50;;;19.70;90.00;;;;;;5011850;28;20398;-73
2022/05/27 09:15:38;;;;;;;1.50;1.27;;;19.50;91.10;;;;;;5011529;28;20402;-73
2022/05/27 09:18:26;;;;;;;1.80;1.10;;;20.80;90.50;;;;;;5011907;28;20896;-72
2022/05/27 09:21:13;;;;;;;2.07;0.93;;;20.60;86.90;;;;;;5011778;28;20455;-72
2022/05/27 09:24:20;;;;;;;1.77;1.00;;;19.70;90.90;;;;;;5011926;28;20810;-72
2022/05/27 09:27:03;;;;;;;1.83;0.80;;;20.70;91.40;;;;;;5011779;28;20641;-72
2022/05/27 09:29:33;;;;;;;3.43;1.37;;;20.90;86.50;;;;;;5011559;28;20920;-72
2022/05/27 09:32:08;;;;;;;1.43;1.20;;;19.60;86.70;;;;;;5014694;28;20411;-72
2022/05/27 09:34:37;;;;;;;1.47;1.10;;;20.00;87.50;;;;;;5013844;28;20458;-72
2022/05/27 09:37:07;;;;;;;3.63;1.07;;;19.50;89.80;;;;;;5015211;28;20442;-72
2022/05/27 09:39:32;;;;;;;2.50;1.13;;;19.80;90.60;;;;;;5014929;28;20969;-72
2022/05/27 09:42:27;;;;;;;1.47;0.87;;;19.50;90.10;;;;;;5014978;28;20459;-72
2022/05/27 09:44:55;;;;;;;1.80;1.10;;;19.70;91.30;;;;;;5014993;28;20408;-73
2022/05/27 09:47:25;;;;;;;2.60;1.40;;;19.70;91.60;;;;;;5015303;28;20511;-72
2022/05/27 09:50:14;;;;;;;1.67;1.50;;;20.40;88.90;;;;;;5017117;28;20442;-73
2022/05/27 09:52:42;;;;;;;3.30;1.20;;;19.30;89.70;;;;;;5014591;28;20418;-72
2022/05/27 09:55:21;;;;;;;1.33;1.00;;;19.60;90.70;;;;;;5014564;28;20768;-72
2022/05/27 09:57:58;;;;;;;4.93;1.17;;;19.60;88.00;;;;;;5014898;28;20407;-72
2022/05/27 10:00:46;;;;;;;1.60;1.07;;;19.00;88.40;;;;;;5014880;28;20433;-72
2022/05/27 10:03:22;;;;;;;1.97;1.00;;;19.50;89.10;;;;;;5015062;28;20398;-72
2022/05/27 10:05:54;;;;;;;2.90;1.10;;;19.20;91.00;;;;;;5014680;28;20413;-72
2022/05/27 10:08:28;;;;;;;2.70;1.20;;;19.10;91.10;;;;;;5014794;28;20409;-73
2022/05/27 10:11:06;;;;;;;1.63;1.00;;;19.60;90.90;;;;;;5014588;28;20571;-73
2022/05/27 10:13:34;;;;;;;1.80;0.97;;;19.10;90.10;;;;;;5014593;28;20503;-72
2022/05/27 10:16:25;;;;;;;2.33;1.50;;;19.10;89.70;;;;;;5014451;28;20445;-71
2022/05/27 10:19:13;;;;;;;4.53;1.03;;;18.40;90.50;;;;;;5009542;28;20418;-71
2022/05/27 10:22:01;;;;;;;2.30;1.13;;;18.10;89.50;;;;;;5014562;28;20461;-72
2022/05/27 10:24:31;;;;;;;6.07;1.67;;;17.70;90.40;;;;;;5014410;28;20410;-73
2022/05/27 10:27:11;;;;;;;8.83;1.00;;;18.10;90.70;;;;;;5014190;28;20417;-72
2022/05/27 10:29:53;;;;;;;4.23;1.50;;;18.00;91.70;;;;;;5014145;28;20419;-72
2022/05/27 10:32:39;;;;;;;3.07;1.53;;;17.80;91.60;;;;;;5014167;28;20456;-73
2022/05/27 10:35:08;;;;;;;2.90;1.40;;;17.40;90.50;;;;;;5014085;28;20910;-73
2022/05/27 10:37:46;;;;;;;0.90;0.80;;;16.80;91.50;;;;;;5014140;28;20443;-73
2022/05/27 10:40:48;;;;;;;2.03;1.23;;;17.00;91.50;;;;;;5013970;28;20451;-72
2022/05/27 10:43:42;;;;;;;1.80;1.07;;;17.10;91.30;;;;;;5007692;28;20780;-73
2022/05/27 10:46:15;;;;;;;2.00;1.40;;;17.00;91.40;;;;;;5013833;28;20407;-70
2022/05/27 10:48:58;;;;;;;3.20;1.10;;;17.10;91.70;;;;;;5013998;28;20443;-71
2022/05/27 10:51:45;;;;;;;2.23;1.30;;;17.20;93.40;;;;;;5014031;28;20454;-72
2022/05/27 10:54:36;;;;;;;3.97;2.13;;;17.50;93.10;;;;;;5014337;28;20762;-72
2022/05/27 11:03:18;;;;;;;2.10;0.93;;;18.70;91.60;;;;;;5014117;28;20459;-72
2022/05/27 11:06:15;;;;;;;2.73;1.50;;;19.10;91.50;;;;;;5013631;28;20455;-72
2022/05/27 11:09:02;;;;;;;2.23;1.20;;;19.00;91.00;;;;;;5014294;28;20406;-73
2022/05/27 11:11:53;;;;;;;1.93;1.30;;;18.70;89.50;;;;;;5014135;28;20502;-73
2022/05/27 11:17:46;;;;;;;1.33;1.20;;;18.50;88.70;;;;;;5014608;28;20401;-72
2022/05/27 11:20:28;;;;;;;1.87;1.10;;;18.30;90.90;;;;;;5013758;28;20422;-73
2022/05/27 11:23:17;;;;;;;1.83;1.37;;;18.20;89.20;;;;;;5013510;28;20420;-72
2022/05/27 11:26:10;;;;;;;2.00;1.13;;;18.00;89.20;;;;;;5013615;28;20893;-73
2022/05/27 11:28:57;;;;;;;1.50;1.37;;;17.70;86.40;;;;;;5013313;28;20426;-72
2022/05/27 11:31:33;;;;;;;1.20;1.10;;;17.90;87.90;;;;;;5013299;28;20891;-72
2022/05/27 11:34:22;;;;;;;2.10;1.50;;;17.70;87.50;;;;;;5013391;28;20404;-72
2022/05/27 11:37:21;;;;;;;1.90;1.00;;;18.20;88.20;;;;;;5013306;28;20405;-72
2022/05/27 11:40:02;;;;;;;3.43;0.90;;;18.70;88.30;;;;;;5013179;28;20962;-72
2022/05/27 11:43:02;;;;;;;2.33;1.13;;;18.80;88.70;;;;;;5013079;28;20459;-71
2022/05/27 11:45:30;;;;;;;5.13;1.07;;;18.60;87.20;;;;;;5013377;28;20514;-72
2022/05/27 11:48:21;;;;;;;3.67;1.50;;;18.40;86.50;;;;;;5013056;28;20508;-72
2022/05/27 11:51:07;;;;;;;1.00;0.80;;;18.00;86.80;;;;;;5013165;28;20439;-74
2022/05/27 11:53:53;;;;;;;3.47;1.20;;;17.80;86.90;;;;;;5012593;28;20438;-72
2022/05/27 11:56:43;;;;;;;1.90;1.70;;;17.80;87.90;;;;;;5012623;28;20781;-72
2022/05/27 11:59:19;;;;;;;2.20;1.33;;;17.20;92.20;;;;;;5012862;28;20405;-72
2022/05/27 12:01:51;;;;;;;2.47;1.30;;;16.70;96.80;;;;;;5012530;28;20496;-72
2022/05/27 12:04:43;;;;;;;2.07;1.40;;;16.20;99.90;;;;;;5012836;28;20413;-72
2022/05/27 12:07:31;;;;;;;1.83;1.50;;;16.20;99.80;;;;;;5012746;28;20411;-71
2022/05/27 12:10:21;;;;;;;2.63;0.97;;;16.60;99.20;;;;;;5012566;28;20447;-72
2022/05/27 12:13:24;;;;;;;1.10;1.00;;;16.80;97.70;;;;;;5012570;28;20407;-72
2022/05/27 12:15:58;;;;;;;2.07;1.47;;;17.20;97.90;;;;;;5012646;28;20455;-72
2022/05/27 12:18:26;;;;;;;2.53;1.17;;;17.20;96.10;;;;;;5011284;28;20474;-72
2022/05/27 12:20:52;;;;;;;4.10;1.80;;;17.10;96.30;;;;;;5012346;28;20463;-72
2022/05/27 12:23:22;;;;;;;1.43;1.33;;;17.30;95.80;;;;;;5012793;28;20462;-72
2022/05/27 12:25:52;;;;;;;1.33;1.07;;;17.50;95.00;;;;;;5012178;28;20422;-72
2022/05/27 12:28:23;;;;;;;2.73;1.13;;;17.30;93.60;;;;;;5012385;28;20444;-72
2022/05/27 12:30:49;;;;;;;2.80;1.30;;;17.20;93.10;;;;;;5012348;28;20423;-72
2022/05/27 12:33:17;;;;;;;1.73;1.10;;;17.40;93.40;;;;;;5012542;28;20418;-72
2022/05/27 12:35:59;;;;;;;3.33;1.43;;;17.60;91.80;;;;;;5012125;28;20251;-73
2022/05/27 12:38:48;;;;;;;1.57;1.13;;;18.10;92.00;;;;;;5012138;28;20422;-73
2022/05/27 12:41:34;;;;;;;1.83;1.07;;;18.10;91.70;;;;;;5011898;28;20476;-72
2022/05/27 12:44:22;;;;;;;4.30;1.20;;;18.10;91.10;;;;;;5012674;28;20805;-72
2022/05/27 12:46:54;;;;;;;1.57;1.30;;;18.30;90.90;;;;;;5011943;28;20422;-72
2022/05/27 12:49:42;;;;;;;1.30;1.10;;;18.00;90.90;;;;;;5012258;28;20495;-72
2022/05/27 12:52:28;;;;;;;1.73;1.10;;;17.70;91.70;;;;;;5012113;28;20415;-72
2022/05/27 12:54:54;;;;;;;2.13;1.23;;;16.90;91.30;;;;;;5004355;28;20451;-72
2022/05/27 13:00:55;;;;;;;2.80;1.10;;;16.80;95.90;;;;;;5011640;28;20202;-72
2022/05/27 13:03:45;;;;;;;4.27;1.30;;;17.40;98.10;;;;;;5011947;28;20923;-73
2022/05/27 13:06:12;;;;;;;2.73;1.70;;;17.70;95.50;;;;;;5013801;28;20839;-73
2022/05/27 13:08:50;;;;;;;1.00;0.90;;;17.40;95.10;;;;;;5014386;28;20420;-73
2022/05/27 13:11:39;;;;;;;1.10;0.90;;;17.20;92.00;;;;;;5015795;28;20768;-72
2022/05/27 13:14:04;;;;;;;1.50;1.20;;;17.50;91.70;;;;;;5015798;28;20401;-72
2022/05/27 13:16:40;;;;;;;1.57;1.10;;;17.40;90.60;;;;;;5015887;28;20415;-73
2022/05/27 13:19:08;;;;;;;1.50;1.10;;;17.50;90.30;;;;;;5015642;28;20326;-72
2022/05/27 13:21:44;;;;;;;1.73;1.43;;;17.50;89.10;;;;;;5014255;28;20451;-72
2022/05/27 13:24:13;;;;;;;1.20;0.90;;;17.80;89.80;;;;;;5015850;28;20947;-72
2022/05/27 13:26:56;;;;;;;1.87;1.23;;;18.10;89.90;;;;;;5014686;28;20439;-73
2022/05/27 13:29:28;;;;;;;1.53;1.07;;;18.00;87.10;;;;;;5016449;28;20434;-71
2022/05/27 13:32:05;;;;;;;1.57;0.97;;;18.10;88.40;;;;;;5016062;28;20419;-73
2022/05/27 13:34:45;;;;;;;3.43;1.10;;;18.40;86.80;;;;;;5015462;28;20463;-72
2022/05/27 13:37:33;;;;;;;1.50;0.80;;;18.40;86.90;;;;;;5015636;28;20423;-72
2022/05/27 13:40:08;;;;;;;1.27;1.17;;;18.40;83.80;;;;;;5042579;23;20575;-68
2022/05/27 13:42:43;;;;;;;1.67;1.00;;;18.30;83.30;;;;;;5034323;28;20819;-68
2022/05/27 13:45:16;;;;;;;1.67;1.57;;;18.40;84.70;;;;;;5035473;28;20406;-68
2022/05/27 13:47:56;;;;;;;2.07;1.00;;;18.50;85.80;;;;;;5035525;28;20401;-69
2022/05/27 13:50:25;;;;;;;0.80;0.80;;;18.40;83.80;;;;;;5035048;28;20846;-68
2022/05/27 13:52:50;;;;;;;1.50;1.00;;;18.50;82.30;;;;;;5035411;28;20405;-68